KDVN/DVN METAR and TAF weather

Enter ICAO airport designator
Station Type Date Time Source
KDVN METAR 2022/06/27 08:52 UTC NOAA

KDVN 270852Z AUTO 30006KT 10SM CLR 12/10 A3025 RMK AO2 SLP239 T01220100 53003


Station Type Date Time Source
KDVN Decoded METAR 2022/06/27 08:52 UTC NOAA

DAVENPORT MUNICIPAL AIRPORT, IA, United States (KDVN) 41-37N 90-35W 228M
Jun 27, 2022 - 04:52 AM EDT / 2022.06.27 0852 UTC
Wind: from the WNW (300 degrees) at 7 MPH (6 KT):0
Visibility: 10 mile(s):0
Sky conditions: clear
Temperature: 54.0 F (12.2 C)
Dew Point: 50.0 F (10.0 C)
Relative Humidity: 86%
Pressure (altimeter): 30.25 in. Hg (1024 hPa)
Pressure tendency: 0.01 inches (0.3 hPa) higher than three hours ago
ob: KDVN 270852Z AUTO 30006KT 10SM CLR 12/10 A3025 RMK AO2 SLP239 T01220100 53003
cycle: 9

Station Type Date Time Source
KDVN TAF UTC NOAA

Error!

Example: see airport list